createdAt,value
2023-05-14T00:01:48.844Z,8.67
2023-05-14T00:04:16.033Z,9.93
2023-05-14T00:06:43.207Z,8.03
2023-05-14T00:09:10.366Z,9.00
2023-05-14T00:11:37.722Z,9.67
2023-05-14T00:14:05.244Z,9.27
2023-05-14T00:16:32.528Z,9.40
2023-05-14T00:18:59.771Z,9.23
2023-05-14T00:21:26.957Z,9.07
2023-05-14T00:23:54.125Z,7.97
2023-05-14T00:26:21.446Z,8.00
2023-05-14T00:28:49.083Z,8.20
2023-05-14T00:31:16.681Z,8.40
2023-05-14T00:33:43.874Z,7.60
2023-05-14T00:36:11.065Z,10.37
2023-05-14T00:38:38.771Z,7.30
2023-05-14T00:41:06.572Z,7.30
2023-05-14T00:43:33.837Z,7.43
2023-05-14T00:46:01.566Z,7.13
2023-05-14T00:48:29.193Z,7.30
2023-05-14T00:50:56.644Z,7.50
2023-05-14T00:53:24.289Z,6.73
2023-05-14T00:55:52.034Z,7.13
2023-05-14T00:58:20.205Z,7.60
2023-05-14T01:00:47.569Z,7.60
2023-05-14T01:03:15.037Z,6.80
2023-05-14T01:06:13.318Z,8.37
2023-05-14T01:08:59.435Z,8.30
2023-05-14T01:11:33.774Z,7.87
2023-05-14T01:14:29.368Z,7.67
2023-05-14T01:16:59.052Z,8.37
2023-05-14T01:19:42.236Z,8.23
2023-05-14T01:22:10.828Z,7.93
2023-05-14T01:24:38.430Z,9.37
2023-05-14T01:27:41.003Z,8.40
2023-05-14T01:30:23.346Z,7.73
2023-05-14T01:32:56.776Z,8.23
2023-05-14T01:35:27.615Z,8.77
2023-05-14T01:38:01.109Z,8.67
2023-05-14T01:40:28.889Z,7.90
2023-05-14T01:42:57.301Z,7.23
2023-05-14T01:45:24.554Z,8.60
2023-05-14T01:47:51.841Z,9.10
2023-05-14T01:50:19.449Z,8.73
2023-05-14T01:52:48.216Z,8.87
2023-05-14T01:55:15.866Z,7.80
2023-05-14T01:57:43.269Z,7.63
2023-05-14T02:00:10.864Z,7.97
2023-05-14T02:02:47.428Z,8.57
2023-05-14T02:05:14.605Z,7.67
2023-05-14T02:07:41.751Z,7.20
2023-05-14T02:10:09.886Z,8.03
2023-05-14T02:12:37.055Z,7.50
2023-05-14T02:15:04.931Z,7.53
2023-05-14T02:17:33.642Z,7.10
2023-05-14T02:20:00.893Z,6.37
2023-05-14T02:22:28.075Z,6.73
2023-05-14T02:24:56.026Z,8.00
2023-05-14T02:27:23.489Z,7.20
2023-05-14T02:29:50.658Z,6.90
2023-05-14T02:32:17.930Z,7.70
2023-05-14T02:34:45.180Z,6.53
2023-05-14T02:37:12.361Z,7.40
2023-05-14T02:39:39.530Z,7.47
2023-05-14T02:42:07.389Z,7.03
2023-05-14T02:44:34.605Z,7.27
2023-05-14T02:47:01.973Z,7.10
2023-05-14T02:49:29.192Z,7.90
2023-05-14T02:51:56.368Z,8.10
2023-05-14T02:54:23.644Z,7.93
2023-05-14T02:56:50.834Z,7.30
2023-05-14T02:59:18.317Z,8.20
2023-05-14T03:01:46.111Z,7.80
2023-05-14T03:04:13.759Z,6.93
2023-05-14T03:06:40.988Z,7.80
2023-05-14T03:09:08.386Z,7.13
2023-05-14T03:11:35.832Z,8.47
2023-05-14T03:14:03.100Z,7.73
2023-05-14T03:16:30.983Z,7.57
2023-05-14T03:18:58.236Z,7.80
2023-05-14T03:21:26.033Z,8.67
2023-05-14T03:23:53.603Z,7.53
2023-05-14T03:26:21.562Z,8.00
2023-05-14T03:28:50.069Z,8.20
2023-05-14T03:31:17.280Z,7.93
2023-05-14T03:33:44.940Z,8.93
2023-05-14T03:36:12.212Z,7.90
2023-05-14T03:38:40.410Z,8.37
2023-05-14T03:41:07.570Z,8.67
2023-05-14T03:43:35.050Z,8.97
2023-05-14T03:46:02.272Z,6.97
2023-05-14T03:48:30.789Z,9.00
2023-05-14T03:50:58.052Z,9.43
2023-05-14T03:53:25.263Z,8.67
2023-05-14T03:55:52.611Z,8.60
2023-05-14T03:58:19.819Z,8.47
2023-05-14T04:00:47.033Z,8.30
2023-05-14T04:03:14.711Z,8.40
2023-05-14T04:05:41.955Z,10.13
2023-05-14T04:08:09.208Z,8.97
2023-05-14T04:10:37.070Z,8.57
2023-05-14T04:13:04.310Z,8.80
2023-05-14T04:15:35.795Z,8.40
2023-05-14T04:18:03.350Z,8.90
2023-05-14T04:20:30.649Z,9.57
2023-05-14T04:22:57.896Z,8.40
2023-05-14T04:25:25.131Z,7.77
2023-05-14T04:27:52.366Z,8.87
2023-05-14T04:30:19.706Z,8.80
2023-05-14T04:32:46.852Z,8.10
2023-05-14T04:35:14.080Z,7.87
2023-05-14T04:37:41.390Z,8.60
2023-05-14T04:40:11.205Z,7.00
2023-05-14T04:42:38.889Z,8.00
2023-05-14T04:45:06.888Z,7.70
2023-05-14T04:47:34.306Z,7.20
2023-05-14T04:50:02.389Z,6.80
2023-05-14T04:52:29.621Z,6.70
2023-05-14T04:54:56.918Z,7.23
2023-05-14T04:57:24.122Z,7.67
2023-05-14T04:59:51.525Z,7.10
2023-05-14T05:02:18.715Z,7.00
2023-05-14T05:04:47.041Z,6.37
2023-05-14T05:07:14.551Z,6.47
2023-05-14T05:09:43.181Z,6.20
2023-05-14T05:12:10.654Z,6.20
2023-05-14T05:14:37.909Z,5.60
2023-05-14T05:17:05.264Z,5.97
2023-05-14T05:19:43.116Z,5.80
2023-05-14T05:22:11.822Z,5.40
2023-05-14T05:24:39.061Z,5.90
2023-05-14T05:27:06.287Z,5.73
2023-05-14T05:29:34.550Z,5.40
2023-05-14T05:32:01.874Z,5.83
2023-05-14T05:34:29.167Z,6.27
2023-05-14T05:36:56.816Z,5.63
2023-05-14T05:39:24.036Z,6.70
2023-05-14T05:41:51.228Z,5.10
2023-05-14T05:44:18.692Z,5.50
2023-05-14T05:46:46.540Z,5.83
2023-05-14T05:49:13.739Z,5.50
2023-05-14T05:51:41.244Z,5.40
2023-05-14T05:54:08.416Z,5.37
2023-05-14T05:56:35.709Z,5.47
2023-05-14T05:59:03.773Z,5.57
2023-05-14T06:01:31.258Z,5.13
2023-05-14T06:03:58.561Z,5.33
2023-05-14T06:06:25.801Z,5.20
2023-05-14T06:08:54.395Z,4.93
2023-05-14T06:11:21.767Z,4.80
2023-05-14T06:13:48.948Z,4.40
2023-05-14T06:16:16.230Z,4.80
2023-05-14T06:18:43.482Z,4.53
2023-05-14T06:21:10.760Z,4.30
2023-05-14T06:23:37.961Z,4.53
2023-05-14T06:26:05.240Z,4.53
2023-05-14T06:28:34.130Z,3.93
2023-05-14T06:31:01.438Z,4.53
2023-05-14T06:33:31.534Z,4.20
2023-05-14T06:36:04.030Z,4.07
2023-05-14T06:38:31.353Z,4.03
2023-05-14T06:40:58.601Z,4.00
2023-05-14T06:43:25.896Z,4.07
2023-05-14T06:45:53.752Z,4.00
2023-05-14T06:48:21.425Z,4.37
2023-05-14T06:50:49.725Z,3.97
2023-05-14T06:53:16.992Z,3.43
2023-05-14T06:55:44.889Z,3.50
2023-05-14T06:58:12.067Z,3.70
2023-05-14T07:00:40.215Z,3.70
2023-05-14T07:03:07.604Z,4.20
2023-05-14T07:05:34.850Z,3.30
2023-05-14T07:08:02.249Z,3.73
2023-05-14T07:10:30.775Z,3.53
2023-05-14T07:12:58.429Z,3.30
2023-05-14T07:15:25.743Z,3.27
2023-05-14T07:17:53.029Z,3.07
2023-05-14T07:20:20.853Z,2.97
2023-05-14T07:22:48.258Z,3.23
2023-05-14T07:25:15.675Z,3.20
2023-05-14T07:27:42.828Z,3.20
2023-05-14T07:30:10.299Z,2.80
2023-05-14T07:32:37.651Z,2.80
2023-05-14T07:35:06.127Z,2.40
2023-05-14T07:37:33.441Z,2.37
2023-05-14T07:40:00.631Z,2.70
2023-05-14T07:42:35.802Z,2.50
2023-05-14T07:45:05.230Z,1.80
2023-05-14T07:47:36.565Z,2.10
2023-05-14T07:50:03.973Z,2.47
2023-05-14T07:52:33.162Z,2.10
2023-05-14T07:55:02.112Z,2.40
2023-05-14T07:57:29.344Z,2.30
2023-05-14T07:59:57.115Z,2.40
2023-05-14T08:02:24.845Z,2.40
2023-05-14T08:04:52.510Z,2.70
2023-05-14T08:07:19.638Z,2.80
2023-05-14T08:09:47.452Z,2.40
2023-05-14T08:12:14.913Z,2.40
2023-05-14T08:14:42.224Z,2.90
2023-05-14T08:17:09.803Z,2.47
2023-05-14T08:19:37.678Z,2.70
2023-05-14T08:22:05.440Z,2.07
2023-05-14T08:24:32.599Z,2.57
2023-05-14T08:26:59.795Z,2.40
2023-05-14T08:29:26.978Z,2.53
2023-05-14T08:31:54.718Z,2.10
2023-05-14T08:34:22.926Z,2.40
2023-05-14T08:36:50.844Z,2.97
2023-05-14T08:39:18.001Z,2.20
2023-05-14T08:41:45.570Z,2.20
2023-05-14T08:44:20.373Z,2.40
2023-05-14T08:46:49.783Z,2.47
2023-05-14T08:49:37.222Z,2.50
2023-05-14T08:52:05.493Z,2.20
2023-05-14T08:54:33.001Z,1.90
2023-05-14T08:57:01.433Z,2.50
2023-05-14T08:59:28.571Z,2.77
2023-05-14T09:01:57.757Z,2.30
2023-05-14T09:04:25.255Z,2.10
2023-05-14T09:06:54.233Z,2.23
2023-05-14T09:09:22.483Z,1.90
2023-05-14T09:11:54.194Z,2.20
2023-05-14T09:14:23.138Z,2.33
2023-05-14T09:16:51.428Z,2.70
2023-05-14T09:19:20.065Z,2.53
2023-05-14T09:21:48.752Z,2.30
2023-05-14T09:24:24.164Z,2.40
2023-05-14T09:26:57.742Z,2.50
2023-05-14T09:29:26.198Z,2.30
2023-05-14T09:31:54.872Z,2.43
2023-05-14T09:34:26.142Z,2.60
2023-05-14T09:37:04.727Z,2.40
2023-05-14T09:39:36.408Z,2.50
2023-05-14T09:42:04.048Z,2.60
2023-05-14T09:44:31.941Z,2.50
2023-05-14T09:46:59.509Z,2.60
2023-05-14T09:49:27.130Z,2.77
2023-05-14T09:51:54.854Z,2.43
2023-05-14T09:54:22.197Z,2.60
2023-05-14T09:56:49.354Z,2.13
2023-05-14T09:59:16.645Z,2.63
2023-05-14T10:01:44.483Z,2.63
2023-05-14T10:04:12.399Z,2.93
2023-05-14T10:06:41.903Z,2.60
2023-05-14T10:09:14.174Z,2.87
2023-05-14T10:11:44.480Z,2.50
2023-05-14T10:14:18.521Z,2.70
2023-05-14T10:16:50.951Z,2.57
2023-05-14T10:19:19.726Z,3.27
2023-05-14T10:21:54.534Z,2.63
2023-05-14T10:24:22.613Z,2.90
2023-05-14T10:26:50.588Z,3.27
2023-05-14T10:29:18.006Z,3.00
2023-05-14T10:31:53.988Z,2.83
2023-05-14T10:34:37.678Z,2.90
2023-05-14T10:37:11.279Z,2.27
2023-05-14T10:39:43.828Z,2.70
2023-05-14T10:42:13.904Z,2.97
2023-05-14T10:45:07.322Z,2.70
2023-05-14T10:47:40.345Z,2.50
2023-05-14T10:50:10.041Z,2.30
2023-05-14T10:52:37.930Z,2.77
2023-05-14T10:55:12.734Z,2.57
2023-05-14T10:57:43.353Z,2.60
2023-05-14T11:00:12.693Z,2.60
2023-05-14T11:02:41.890Z,2.40
2023-05-14T11:05:11.582Z,2.80
2023-05-14T11:07:49.952Z,2.40
2023-05-14T11:10:25.761Z,2.40
2023-05-14T11:12:53.192Z,2.63
2023-05-14T11:15:25.981Z,2.80
2023-05-14T11:17:53.985Z,2.30
2023-05-14T11:20:21.587Z,2.33
2023-05-14T11:22:51.727Z,2.40
2023-05-14T11:25:19.194Z,2.80
2023-05-14T11:27:48.170Z,2.50
2023-05-14T11:30:19.770Z,3.20
2023-05-14T11:32:49.104Z,2.40
2023-05-14T11:35:17.822Z,3.13
2023-05-14T11:37:52.168Z,3.10
2023-05-14T11:40:20.653Z,3.20
2023-05-14T11:42:52.188Z,2.97
2023-05-14T11:45:27.336Z,2.77
2023-05-14T11:47:54.776Z,3.03
2023-05-14T11:50:23.657Z,2.60
2023-05-14T11:52:51.149Z,2.30
2023-05-14T11:55:18.363Z,3.03
2023-05-14T11:57:45.959Z,2.70
2023-05-14T12:00:16.498Z,2.70
2023-05-14T12:02:43.966Z,2.93
2023-05-14T12:05:13.301Z,3.30
2023-05-14T12:07:41.784Z,3.40
2023-05-14T12:10:11.736Z,3.37
2023-05-14T12:12:39.389Z,2.90
2023-05-14T12:15:13.630Z,2.73
2023-05-14T12:17:41.778Z,3.00
2023-05-14T12:20:10.963Z,2.50
2023-05-14T12:22:38.459Z,2.90
2023-05-14T12:25:12.738Z,2.77
2023-05-14T12:27:40.087Z,3.07
2023-05-14T12:32:42.149Z,2.70
2023-05-14T12:35:09.677Z,3.00
2023-05-14T12:37:40.252Z,2.87
2023-05-14T12:40:09.514Z,2.50
2023-05-14T12:42:38.036Z,2.57
2023-05-14T12:45:07.811Z,2.60
2023-05-14T12:47:38.683Z,3.50
2023-05-14T12:50:06.525Z,2.70
2023-05-14T12:52:38.444Z,2.40
2023-05-14T12:55:10.874Z,3.40
2023-05-14T12:57:39.634Z,2.60
2023-05-14T13:00:12.909Z,2.80
2023-05-14T13:02:43.617Z,2.93
2023-05-14T13:05:12.153Z,3.10
2023-05-14T13:07:39.446Z,2.30
2023-05-14T13:10:07.161Z,2.70
2023-05-14T13:12:34.593Z,2.03
2023-05-14T13:15:02.271Z,3.13
2023-05-14T13:17:31.542Z,2.53
2023-05-14T13:19:58.896Z,3.10
2023-05-14T13:22:26.060Z,3.10
2023-05-14T13:24:53.221Z,2.83
2023-05-14T13:27:21.025Z,2.70
2023-05-14T13:29:48.381Z,3.10
2023-05-14T13:32:15.527Z,2.77
2023-05-14T13:34:43.995Z,2.70
2023-05-14T13:37:11.729Z,3.00
2023-05-14T13:39:39.814Z,2.60
2023-05-14T13:42:08.856Z,2.77
2023-05-14T13:44:36.158Z,2.80
2023-05-14T13:47:04.231Z,3.00
2023-05-14T13:49:32.115Z,2.70
2023-05-14T13:51:59.389Z,3.10
2023-05-14T13:54:26.893Z,2.90
2023-05-14T13:56:54.269Z,2.70
2023-05-14T13:59:21.625Z,3.10
2023-05-14T14:01:50.000Z,2.63
2023-05-14T14:04:17.678Z,2.97
2023-05-14T14:06:45.269Z,2.70
2023-05-14T14:09:13.859Z,3.00
2023-05-14T14:11:41.737Z,3.03
2023-05-14T14:14:09.020Z,2.60
2023-05-14T14:16:36.477Z,2.80
2023-05-14T14:19:03.878Z,2.70
2023-05-14T14:21:31.691Z,2.87
2023-05-14T14:23:59.160Z,2.67
2023-05-14T14:26:27.824Z,3.17
2023-05-14T14:28:55.445Z,3.00
2023-05-14T14:31:22.878Z,2.80
2023-05-14T14:33:50.472Z,2.67
2023-05-14T14:36:17.774Z,2.83
2023-05-14T14:38:45.116Z,2.47
2023-05-14T14:41:12.479Z,3.07
2023-05-14T14:43:41.217Z,3.20
2023-05-14T14:46:09.698Z,2.60
2023-05-14T14:48:37.893Z,2.80
2023-05-14T14:51:08.796Z,2.60
2023-05-14T14:53:37.022Z,3.23
2023-05-14T14:56:05.006Z,2.70
2023-05-14T14:58:32.567Z,2.50
2023-05-14T15:01:01.029Z,2.60
2023-05-14T15:03:28.770Z,2.40
2023-05-14T15:05:56.418Z,2.70
2023-05-14T15:08:27.986Z,2.77
2023-05-14T15:10:56.227Z,2.80
2023-05-14T15:13:29.409Z,3.00
2023-05-14T15:15:56.704Z,2.40
2023-05-14T15:18:24.035Z,2.40
2023-05-14T15:20:52.438Z,2.73
2023-05-14T15:23:19.918Z,2.37
2023-05-14T15:25:47.346Z,2.10
2023-05-14T15:28:15.273Z,2.50
2023-05-14T15:30:42.663Z,2.90
2023-05-14T15:33:10.451Z,3.10
2023-05-14T15:35:37.950Z,3.00
2023-05-14T15:38:06.815Z,2.60
2023-05-14T15:40:35.121Z,2.70
2023-05-14T15:43:02.486Z,2.97
2023-05-14T15:45:29.824Z,2.70
2023-05-14T15:47:57.175Z,3.20
2023-05-14T15:50:27.187Z,3.00
2023-05-14T15:52:54.609Z,3.10
2023-05-14T15:55:22.040Z,2.70
2023-05-14T15:57:49.339Z,3.00
2023-05-14T16:00:17.471Z,2.93
2023-05-14T16:02:45.050Z,3.00
2023-05-14T16:05:13.936Z,2.97
2023-05-14T16:07:42.706Z,3.20
2023-05-14T16:10:10.324Z,2.90
2023-05-14T16:12:37.625Z,2.60
2023-05-14T16:15:06.927Z,2.83
2023-05-14T16:17:34.674Z,2.93
2023-05-14T16:20:02.059Z,3.37
2023-05-14T16:22:32.533Z,2.80
2023-05-14T16:25:02.581Z,3.00
2023-05-14T16:27:31.472Z,3.53
2023-05-14T16:29:59.721Z,3.53
2023-05-14T16:32:27.559Z,3.40
2023-05-14T16:34:56.413Z,3.17
2023-05-14T16:37:24.551Z,3.30
2023-05-14T16:39:52.055Z,3.63
2023-05-14T16:42:19.391Z,3.30
2023-05-14T16:44:46.748Z,3.63
2023-05-14T16:47:14.159Z,3.40
2023-05-14T16:49:41.960Z,3.07
2023-05-14T16:52:09.979Z,3.70
2023-05-14T16:54:37.844Z,3.07
2023-05-14T16:57:05.944Z,3.20
2023-05-14T16:59:33.571Z,3.30
2023-05-14T17:02:01.088Z,3.30
2023-05-14T17:04:28.674Z,2.93
2023-05-14T17:06:57.354Z,3.40
2023-05-14T17:09:24.803Z,3.13
2023-05-14T17:11:52.241Z,3.60
2023-05-14T17:14:19.900Z,3.47
2023-05-14T17:16:47.280Z,3.10
2023-05-14T17:19:14.712Z,3.47
2023-05-14T17:21:42.322Z,4.03
2023-05-14T17:24:10.464Z,3.20
2023-05-14T17:26:38.301Z,3.20
2023-05-14T17:29:05.663Z,3.07
2023-05-14T17:31:33.498Z,3.20
2023-05-14T17:34:01.122Z,3.10
2023-05-14T17:36:28.584Z,3.80
2023-05-14T17:38:56.227Z,3.13
2023-05-14T17:41:23.699Z,3.53
2023-05-14T17:43:52.494Z,3.27
2023-05-14T17:46:19.987Z,3.63
2023-05-14T17:48:47.330Z,3.03
2023-05-14T17:51:40.313Z,4.33
2023-05-14T17:54:07.683Z,3.50
2023-05-14T17:56:35.204Z,3.03
2023-05-14T17:59:02.601Z,2.60
2023-05-14T18:01:30.758Z,2.73
2023-05-14T18:03:58.376Z,2.97
2023-05-14T18:06:25.743Z,2.30
2023-05-14T18:08:53.058Z,2.87
2023-05-14T18:11:21.020Z,2.37
2023-05-14T18:13:48.433Z,2.37
2023-05-14T18:16:16.562Z,2.40
2023-05-14T18:18:44.871Z,2.80
2023-05-14T18:21:12.410Z,2.50
2023-05-14T18:23:40.054Z,2.97
2023-05-14T18:26:08.106Z,2.77
2023-05-14T18:28:37.127Z,2.73
2023-05-14T18:31:05.074Z,3.17
2023-05-14T18:33:32.924Z,2.93
2023-05-14T18:36:00.363Z,2.70
2023-05-14T18:38:28.157Z,2.60
2023-05-14T18:40:55.507Z,2.80
2023-05-14T18:43:22.862Z,2.80
2023-05-14T18:45:50.574Z,2.60
2023-05-14T18:48:18.042Z,2.77
2023-05-14T18:50:45.470Z,2.90
2023-05-14T18:53:12.902Z,2.80
2023-05-14T18:55:40.831Z,2.80
2023-05-14T18:58:08.353Z,2.70
2023-05-14T19:00:36.374Z,3.20
2023-05-14T19:03:04.587Z,2.53
2023-05-14T19:05:32.230Z,2.80
2023-05-14T19:08:00.919Z,2.90
2023-05-14T19:10:28.269Z,2.80
2023-05-14T19:12:55.640Z,3.20
2023-05-14T19:15:24.561Z,3.70
2023-05-14T19:17:54.250Z,2.80
2023-05-14T19:20:22.757Z,2.90
2023-05-14T19:22:50.256Z,2.80
2023-05-14T19:25:17.641Z,3.20
2023-05-14T19:27:45.449Z,3.47
2023-05-14T19:30:13.631Z,3.30
2023-05-14T19:32:40.997Z,3.30
2023-05-14T19:35:09.224Z,3.80
2023-05-14T19:37:36.627Z,3.27
2023-05-14T19:40:04.749Z,3.47
2023-05-14T19:42:32.025Z,3.37
2023-05-14T19:44:59.532Z,3.50
2023-05-14T19:47:28.362Z,3.33
2023-05-14T19:49:55.732Z,3.13
2023-05-14T19:52:23.049Z,3.60
2023-05-14T19:54:50.367Z,3.40
2023-05-14T19:57:17.667Z,3.60
2023-05-14T19:59:45.480Z,3.60
2023-05-14T20:02:18.097Z,3.40
2023-05-14T20:04:46.077Z,3.30
2023-05-14T20:07:15.445Z,3.20
2023-05-14T20:09:44.219Z,3.70
2023-05-14T20:12:12.855Z,4.37
2023-05-14T20:14:41.204Z,4.37
2023-05-14T20:17:08.702Z,3.60
2023-05-14T20:19:36.128Z,3.87
2023-05-14T20:22:04.177Z,4.30
2023-05-14T20:24:31.488Z,4.17
2023-05-14T20:26:59.046Z,4.37
2023-05-14T20:29:26.343Z,4.57
2023-05-14T20:31:53.823Z,5.40
2023-05-14T20:34:21.609Z,4.13
2023-05-14T20:36:48.949Z,4.80
2023-05-14T20:39:16.626Z,4.70
2023-05-14T20:41:45.581Z,4.50
2023-05-14T20:44:12.971Z,4.70
2023-05-14T20:46:40.886Z,4.27
2023-05-14T20:49:08.293Z,4.37
2023-05-14T20:51:35.730Z,4.77
2023-05-14T20:54:03.138Z,5.13
2023-05-14T20:56:31.005Z,5.60
2023-05-14T20:58:58.406Z,4.87
2023-05-14T21:01:25.759Z,5.17
2023-05-14T21:03:53.269Z,4.90
2023-05-14T21:06:21.080Z,5.53
2023-05-14T21:08:48.659Z,5.00
2023-05-14T21:11:15.822Z,4.83
2023-05-14T21:13:44.428Z,4.80
2023-05-14T21:16:12.808Z,4.97
2023-05-14T21:18:40.064Z,5.70
2023-05-14T21:21:07.447Z,5.10
2023-05-14T21:23:34.709Z,4.37
2023-05-14T21:26:01.922Z,5.07
2023-05-14T21:28:29.645Z,5.37
2023-05-14T21:30:57.114Z,5.17
2023-05-14T21:33:24.914Z,5.70
2023-05-14T21:35:52.226Z,5.10
2023-05-14T21:38:19.674Z,5.10
2023-05-14T21:40:46.834Z,5.30
2023-05-14T21:43:14.233Z,5.20
2023-05-14T21:45:43.930Z,6.13
2023-05-14T21:48:11.356Z,6.03
2023-05-14T21:50:38.894Z,5.90
2023-05-14T21:53:06.051Z,6.50
2023-05-14T21:55:33.810Z,5.70
2023-05-14T21:58:02.466Z,6.20
2023-05-14T22:00:29.630Z,5.90
2023-05-14T22:02:57.285Z,6.07
2023-05-14T22:05:24.976Z,5.40
2023-05-14T22:07:52.394Z,5.57
2023-05-14T22:10:19.640Z,6.20
2023-05-14T22:12:46.794Z,5.30
2023-05-14T22:15:13.978Z,5.80
2023-05-14T22:17:41.629Z,5.87
2023-05-14T22:20:10.191Z,6.67
2023-05-14T22:22:37.660Z,6.80
2023-05-14T22:25:05.503Z,6.90
2023-05-14T22:27:33.205Z,5.93
2023-05-14T22:30:00.454Z,6.37
2023-05-14T22:32:27.694Z,5.40
2023-05-14T22:34:55.591Z,6.10
2023-05-14T22:37:22.911Z,6.57
2023-05-14T22:39:50.211Z,6.10
2023-05-14T22:42:17.397Z,6.77
2023-05-14T22:44:45.169Z,6.90
2023-05-14T22:47:12.448Z,7.70
2023-05-14T22:49:40.708Z,7.00
2023-05-14T22:52:07.857Z,6.60
2023-05-14T22:54:34.979Z,6.63
2023-05-14T22:57:03.137Z,7.47
2023-05-14T22:59:30.898Z,5.53
2023-05-14T23:01:58.076Z,6.50
2023-05-14T23:04:26.092Z,6.43
2023-05-14T23:06:53.370Z,6.00
2023-05-14T23:09:20.540Z,6.43
2023-05-14T23:11:47.919Z,7.40
2023-05-14T23:14:15.148Z,6.80
2023-05-14T23:16:42.869Z,7.40
2023-05-14T23:19:10.305Z,7.70
2023-05-14T23:21:38.080Z,7.07
2023-05-14T23:24:05.537Z,7.93
2023-05-14T23:26:32.705Z,6.80
2023-05-14T23:28:59.875Z,7.80
2023-05-14T23:31:27.213Z,6.70
2023-05-14T23:33:54.456Z,7.80
2023-05-14T23:36:21.986Z,7.10
2023-05-14T23:38:49.223Z,7.13
2023-05-14T23:41:16.928Z,8.17
2023-05-14T23:43:44.055Z,8.40
2023-05-14T23:46:11.655Z,7.23
2023-05-14T23:48:38.854Z,7.80
2023-05-14T23:51:06.013Z,8.37
2023-05-14T23:53:33.148Z,7.60
2023-05-14T23:56:00.621Z,7.30
2023-05-14T23:58:29.873Z,7.47
